sensor_id;sensor_type;location;lat;lon;timestamp;temperature;humidity
75985;DHT22;65033;44.660;37.758;2023-12-20T00:00:22;11.96;78.27
75985;DHT22;65033;44.660;37.758;2023-12-20T00:01:26;11.97;77.51
75985;DHT22;65033;44.660;37.758;2023-12-20T00:02:30;12.00;77.51
75985;DHT22;65033;44.660;37.758;2023-12-20T00:03:33;12.03;77.10
75985;DHT22;65033;44.660;37.758;2023-12-20T00:04:40;12.02;76.22
75985;DHT22;65033;44.660;37.758;2023-12-20T00:05:43;12.04;76.44
75985;DHT22;65033;44.660;37.758;2023-12-20T00:06:47;12.05;76.46
75985;DHT22;65033;44.660;37.758;2023-12-20T00:07:50;12.05;76.13
75985;DHT22;65033;44.660;37.758;2023-12-20T00:08:55;12.06;76.21
75985;DHT22;65033;44.660;37.758;2023-12-20T00:09:58;12.07;77.18
75985;DHT22;65033;44.660;37.758;2023-12-20T00:11:02;12.07;76.53
75985;DHT22;65033;44.660;37.758;2023-12-20T00:12:06;12.08;76.74
75985;DHT22;65033;44.660;37.758;2023-12-20T00:13:09;12.11;76.26
75985;DHT22;65033;44.660;37.758;2023-12-20T00:14:13;12.12;76.89
75985;DHT22;65033;44.660;37.758;2023-12-20T00:15:16;12.13;77.66
75985;DHT22;65033;44.660;37.758;2023-12-20T00:16:20;12.12;77.50
75985;DHT22;65033;44.660;37.758;2023-12-20T00:17:23;12.12;76.67
75985;DHT22;65033;44.660;37.758;2023-12-20T00:18:27;12.11;76.66
75985;DHT22;65033;44.660;37.758;2023-12-20T00:19:30;12.10;77.21
75985;DHT22;65033;44.660;37.758;2023-12-20T00:20:33;12.11;77.85
75985;DHT22;65033;44.660;37.758;2023-12-20T00:21:37;12.13;78.20
75985;DHT22;65033;44.660;37.758;2023-12-20T00:22:41;12.14;77.47
75985;DHT22;65033;44.660;37.758;2023-12-20T00:23:44;12.13;76.50
75985;DHT22;65033;44.660;37.758;2023-12-20T00:24:49;12.13;76.77
75985;DHT22;65033;44.660;37.758;2023-12-20T00:25:52;12.14;77.40
75985;DHT22;65033;44.660;37.758;2023-12-20T00:26:56;12.13;77.99
75985;DHT22;65033;44.660;37.758;2023-12-20T00:27:59;12.16;77.89
75985;DHT22;65033;44.660;37.758;2023-12-20T00:29:03;12.17;78.09
75985;DHT22;65033;44.660;37.758;2023-12-20T00:30:07;12.18;78.08
75985;DHT22;65033;44.660;37.758;2023-12-20T00:31:11;12.19;78.50
75985;DHT22;65033;44.660;37.758;2023-12-20T00:32:14;12.19;78.50
75985;DHT22;65033;44.660;37.758;2023-12-20T00:33:18;12.19;78.94
75985;DHT22;65033;44.660;37.758;2023-12-20T00:34:22;12.19;78.34
75985;DHT22;65033;44.660;37.758;2023-12-20T00:35:25;12.19;78.24
75985;DHT22;65033;44.660;37.758;2023-12-20T00:36:28;12.20;78.38
75985;DHT22;65033;44.660;37.758;2023-12-20T00:37:32;12.21;78.47
75985;DHT22;65033;44.660;37.758;2023-12-20T00:38:35;12.19;78.31
75985;DHT22;65033;44.660;37.758;2023-12-20T00:39:39;12.18;78.18
75985;DHT22;65033;44.660;37.758;2023-12-20T00:40:44;12.16;78.09
75985;DHT22;65033;44.660;37.758;2023-12-20T00:41:47;12.18;78.18
75985;DHT22;65033;44.660;37.758;2023-12-20T00:42:51;12.19;78.90
75985;DHT22;65033;44.660;37.758;2023-12-20T00:43:54;12.21;79.48
75985;DHT22;65033;44.660;37.758;2023-12-20T00:44:58;12.22;78.54
75985;DHT22;65033;44.660;37.758;2023-12-20T00:46:02;12.19;77.60
75985;DHT22;65033;44.660;37.758;2023-12-20T00:47:05;12.18;78.49
75985;DHT22;65033;44.660;37.758;2023-12-20T00:48:09;12.16;78.12
75985;DHT22;65033;44.660;37.758;2023-12-20T00:49:12;12.15;78.95
75985;DHT22;65033;44.660;37.758;2023-12-20T00:50:16;12.17;79.50
75985;DHT22;65033;44.660;37.758;2023-12-20T00:51:19;12.20;79.79
75985;DHT22;65033;44.660;37.758;2023-12-20T00:52:23;12.19;79.10
75985;DHT22;65033;44.660;37.758;2023-12-20T00:53:26;12.19;79.53
75985;DHT22;65033;44.660;37.758;2023-12-20T00:54:30;12.20;79.74
75985;DHT22;65033;44.660;37.758;2023-12-20T00:55:34;12.20;79.17
75985;DHT22;65033;44.660;37.758;2023-12-20T00:56:38;12.19;78.54
75985;DHT22;65033;44.660;37.758;2023-12-20T00:57:42;12.20;78.92
75985;DHT22;65033;44.660;37.758;2023-12-20T00:58:45;12.21;79.02
75985;DHT22;65033;44.660;37.758;2023-12-20T00:59:49;12.20;79.16
75985;DHT22;65033;44.660;37.758;2023-12-20T01:00:53;12.22;80.10
75985;DHT22;65033;44.660;37.758;2023-12-20T01:01:57;12.22;79.21
75985;DHT22;65033;44.660;37.758;2023-12-20T01:03:01;12.23;79.30
75985;DHT22;65033;44.660;37.758;2023-12-20T01:04:04;12.26;79.37
75985;DHT22;65033;44.660;37.758;2023-12-20T01:05:08;12.27;79.73
75985;DHT22;65033;44.660;37.758;2023-12-20T01:06:12;12.26;80.09
75985;DHT22;65033;44.660;37.758;2023-12-20T01:07:15;12.26;79.53
75985;DHT22;65033;44.660;37.758;2023-12-20T01:08:19;12.26;79.44
75985;DHT22;65033;44.660;37.758;2023-12-20T01:09:22;12.25;78.75
75985;DHT22;65033;44.660;37.758;2023-12-20T01:10:32;12.22;78.38
75985;DHT22;65033;44.660;37.758;2023-12-20T01:11:35;12.21;78.46
75985;DHT22;65033;44.660;37.758;2023-12-20T01:12:40;12.22;78.62
75985;DHT22;65033;44.660;37.758;2023-12-20T01:13:44;12.23;78.88
75985;DHT22;65033;44.660;37.758;2023-12-20T01:14:47;12.23;78.43
75985;DHT22;65033;44.660;37.758;2023-12-20T01:15:50;12.23;78.69
75985;DHT22;65033;44.660;37.758;2023-12-20T01:16:54;12.25;78.55
75985;DHT22;65033;44.660;37.758;2023-12-20T01:17:57;12.23;78.48
75985;DHT22;65033;44.660;37.758;2023-12-20T01:19:02;12.22;78.99
75985;DHT22;65033;44.660;37.758;2023-12-20T01:20:07;12.21;78.37
75985;DHT22;65033;44.660;37.758;2023-12-20T01:21:10;12.20;77.21
75985;DHT22;65033;44.660;37.758;2023-12-20T01:22:14;12.21;77.92
75985;DHT22;65033;44.660;37.758;2023-12-20T01:23:17;12.23;79.02
75985;DHT22;65033;44.660;37.758;2023-12-20T01:24:21;12.23;78.34
75985;DHT22;65033;44.660;37.758;2023-12-20T01:25:24;12.25;78.19
75985;DHT22;65033;44.660;37.758;2023-12-20T01:26:28;12.23;78.49
75985;DHT22;65033;44.660;37.758;2023-12-20T01:27:31;12.23;78.40
75985;DHT22;65033;44.660;37.758;2023-12-20T01:28:36;12.25;78.27
75985;DHT22;65033;44.660;37.758;2023-12-20T01:29:39;12.27;78.23
75985;DHT22;65033;44.660;37.758;2023-12-20T01:30:43;12.28;78.32
75985;DHT22;65033;44.660;37.758;2023-12-20T01:31:46;12.28;78.22
75985;DHT22;65033;44.660;37.758;2023-12-20T01:32:50;12.29;78.24
75985;DHT22;65033;44.660;37.758;2023-12-20T01:33:53;12.26;78.34
75985;DHT22;65033;44.660;37.758;2023-12-20T01:34:57;12.25;79.06
75985;DHT22;65033;44.660;37.758;2023-12-20T01:36:02;12.25;78.94
75985;DHT22;65033;44.660;37.758;2023-12-20T01:37:05;12.21;78.03
75985;DHT22;65033;44.660;37.758;2023-12-20T01:38:09;12.20;77.11
75985;DHT22;65033;44.660;37.758;2023-12-20T01:39:12;12.15;77.62
75985;DHT22;65033;44.660;37.758;2023-12-20T01:40:20;12.14;78.10
75985;DHT22;65033;44.660;37.758;2023-12-20T01:41:23;12.14;79.16
75985;DHT22;65033;44.660;37.758;2023-12-20T01:42:27;12.13;78.69
75985;DHT22;65033;44.660;37.758;2023-12-20T01:43:30;12.14;79.36
75985;DHT22;65033;44.660;37.758;2023-12-20T01:44:36;12.15;79.65
75985;DHT22;65033;44.660;37.758;2023-12-20T01:45:39;12.15;78.96
75985;DHT22;65033;44.660;37.758;2023-12-20T01:46:43;12.16;78.18
75985;DHT22;65033;44.660;37.758;2023-12-20T01:47:46;12.14;77.33
75985;DHT22;65033;44.660;37.758;2023-12-20T01:48:50;12.14;77.35
75985;DHT22;65033;44.660;37.758;2023-12-20T01:49:54;12.15;78.79
75985;DHT22;65033;44.660;37.758;2023-12-20T01:51:00;12.17;79.46
75985;DHT22;65033;44.660;37.758;2023-12-20T01:52:04;12.17;78.98
75985;DHT22;65033;44.660;37.758;2023-12-20T01:53:09;12.16;78.70
75985;DHT22;65033;44.660;37.758;2023-12-20T01:54:13;12.14;78.53
75985;DHT22;65033;44.660;37.758;2023-12-20T01:55:17;12.14;78.43
75985;DHT22;65033;44.660;37.758;2023-12-20T01:56:21;12.12;77.75
75985;DHT22;65033;44.660;37.758;2023-12-20T01:57:24;12.14;77.79
75985;DHT22;65033;44.660;37.758;2023-12-20T01:58:28;12.15;77.84
75985;DHT22;65033;44.660;37.758;2023-12-20T01:59:31;12.14;78.36
75985;DHT22;65033;44.660;37.758;2023-12-20T02:00:36;12.15;78.90
75985;DHT22;65033;44.660;37.758;2023-12-20T02:01:40;12.16;78.47
75985;DHT22;65033;44.660;37.758;2023-12-20T02:02:45;12.16;77.66
75985;DHT22;65033;44.660;37.758;2023-12-20T02:03:48;12.14;77.37
75985;DHT22;65033;44.660;37.758;2023-12-20T02:04:53;12.16;77.23
75985;DHT22;65033;44.660;37.758;2023-12-20T02:05:57;12.15;76.83
75985;DHT22;65033;44.660;37.758;2023-12-20T02:07:00;12.16;77.19
75985;DHT22;65033;44.660;37.758;2023-12-20T02:08:05;12.18;78.73
75985;DHT22;65033;44.660;37.758;2023-12-20T02:09:09;12.16;78.35
75985;DHT22;65033;44.660;37.758;2023-12-20T02:10:12;12.16;77.85
75985;DHT22;65033;44.660;37.758;2023-12-20T02:11:16;12.17;77.56
75985;DHT22;65033;44.660;37.758;2023-12-20T02:12:20;12.17;77.21
75985;DHT22;65033;44.660;37.758;2023-12-20T02:13:23;12.18;77.57
75985;DHT22;65033;44.660;37.758;2023-12-20T02:14:28;12.18;78.16
75985;DHT22;65033;44.660;37.758;2023-12-20T02:15:31;12.18;78.45
75985;DHT22;65033;44.660;37.758;2023-12-20T02:16:36;12.16;78.26
75985;DHT22;65033;44.660;37.758;2023-12-20T02:17:40;12.18;78.38
75985;DHT22;65033;44.660;37.758;2023-12-20T02:18:44;12.15;78.69
75985;DHT22;65033;44.660;37.758;2023-12-20T02:19:48;12.16;79.09
75985;DHT22;65033;44.660;37.758;2023-12-20T02:20:51;12.17;78.47
75985;DHT22;65033;44.660;37.758;2023-12-20T02:22:07;12.17;78.82
75985;DHT22;65033;44.660;37.758;2023-12-20T02:23:11;12.16;78.38
75985;DHT22;65033;44.660;37.758;2023-12-20T02:24:14;12.16;78.58
75985;DHT22;65033;44.660;37.758;2023-12-20T02:25:18;12.16;78.77
75985;DHT22;65033;44.660;37.758;2023-12-20T02:26:22;12.18;79.02
75985;DHT22;65033;44.660;37.758;2023-12-20T02:27:25;12.19;79.50
75985;DHT22;65033;44.660;37.758;2023-12-20T02:28:29;12.19;79.16
75985;DHT22;65033;44.660;37.758;2023-12-20T02:29:32;12.19;78.47
75985;DHT22;65033;44.660;37.758;2023-12-20T02:30:36;12.19;77.44
75985;DHT22;65033;44.660;37.758;2023-12-20T02:31:39;12.19;77.66
75985;DHT22;65033;44.660;37.758;2023-12-20T02:32:43;12.20;77.79
75985;DHT22;65033;44.660;37.758;2023-12-20T02:33:46;12.20;78.04
75985;DHT22;65033;44.660;37.758;2023-12-20T02:34:50;12.20;76.79
75985;DHT22;65033;44.660;37.758;2023-12-20T02:35:53;12.22;77.73
75985;DHT22;65033;44.660;37.758;2023-12-20T02:36:57;12.23;77.13
75985;DHT22;65033;44.660;37.758;2023-12-20T02:38:01;12.22;77.71
75985;DHT22;65033;44.660;37.758;2023-12-20T02:39:05;12.26;77.43
75985;DHT22;65033;44.660;37.758;2023-12-20T02:40:09;12.25;75.85
75985;DHT22;65033;44.660;37.758;2023-12-20T02:41:13;12.23;75.78
75985;DHT22;65033;44.660;37.758;2023-12-20T02:42:19;12.25;76.08
75985;DHT22;65033;44.660;37.758;2023-12-20T02:43:23;12.25;75.99
75985;DHT22;65033;44.660;37.758;2023-12-20T02:44:26;12.22;76.50
75985;DHT22;65033;44.660;37.758;2023-12-20T02:45:30;12.21;75.92
75985;DHT22;65033;44.660;37.758;2023-12-20T02:46:33;12.21;76.98
75985;DHT22;65033;44.660;37.758;2023-12-20T02:47:37;12.22;77.78
75985;DHT22;65033;44.660;37.758;2023-12-20T02:48:40;12.20;77.47
75985;DHT22;65033;44.660;37.758;2023-12-20T02:49:44;12.20;77.27
75985;DHT22;65033;44.660;37.758;2023-12-20T02:50:47;12.20;77.45
75985;DHT22;65033;44.660;37.758;2023-12-20T02:51:52;12.19;77.24
75985;DHT22;65033;44.660;37.758;2023-12-20T02:52:55;12.17;77.18
75985;DHT22;65033;44.660;37.758;2023-12-20T02:54:00;12.17;77.61
75985;DHT22;65033;44.660;37.758;2023-12-20T02:55:04;12.17;77.56
75985;DHT22;65033;44.660;37.758;2023-12-20T02:56:08;12.18;77.39
75985;DHT22;65033;44.660;37.758;2023-12-20T02:57:11;12.18;77.87
75985;DHT22;65033;44.660;37.758;2023-12-20T02:58:14;12.19;77.79
75985;DHT22;65033;44.660;37.758;2023-12-20T02:59:18;12.18;77.23
75985;DHT22;65033;44.660;37.758;2023-12-20T03:00:21;12.17;76.32
75985;DHT22;65033;44.660;37.758;2023-12-20T03:01:25;12.18;75.77
75985;DHT22;65033;44.660;37.758;2023-12-20T03:02:29;12.17;76.08
75985;DHT22;65033;44.660;37.758;2023-12-20T03:03:33;12.18;78.16
75985;DHT22;65033;44.660;37.758;2023-12-20T03:04:36;12.18;78.38
75985;DHT22;65033;44.660;37.758;2023-12-20T03:05:40;12.18;77.60
75985;DHT22;65033;44.660;37.758;2023-12-20T03:06:44;12.17;76.95
75985;DHT22;65033;44.660;37.758;2023-12-20T03:07:47;12.16;77.15
75985;DHT22;65033;44.660;37.758;2023-12-20T03:08:51;12.18;76.89
75985;DHT22;65033;44.660;37.758;2023-12-20T03:09:56;12.18;77.54
75985;DHT22;65033;44.660;37.758;2023-12-20T03:11:01;12.20;78.43
75985;DHT22;65033;44.660;37.758;2023-12-20T03:12:05;12.20;78.72
75985;DHT22;65033;44.660;37.758;2023-12-20T03:13:08;12.21;78.40
75985;DHT22;65033;44.660;37.758;2023-12-20T03:14:12;12.20;78.56
75985;DHT22;65033;44.660;37.758;2023-12-20T03:15:15;12.20;79.47
75985;DHT22;65033;44.660;37.758;2023-12-20T03:16:19;12.20;78.43
75985;DHT22;65033;44.660;37.758;2023-12-20T03:17:22;12.20;77.76
75985;DHT22;65033;44.660;37.758;2023-12-20T03:18:25;12.18;77.72
75985;DHT22;65033;44.660;37.758;2023-12-20T03:19:31;12.21;79.42
75985;DHT22;65033;44.660;37.758;2023-12-20T03:20:34;12.20;78.74
75985;DHT22;65033;44.660;37.758;2023-12-20T03:21:38;12.20;78.18
75985;DHT22;65033;44.660;37.758;2023-12-20T03:22:41;12.18;76.62
75985;DHT22;65033;44.660;37.758;2023-12-20T03:23:45;12.18;76.37
75985;DHT22;65033;44.660;37.758;2023-12-20T03:24:48;12.16;76.86
75985;DHT22;65033;44.660;37.758;2023-12-20T03:25:53;12.18;78.02
75985;DHT22;65033;44.660;37.758;2023-12-20T03:26:57;12.19;79.13
75985;DHT22;65033;44.660;37.758;2023-12-20T03:28:00;12.18;78.34
75985;DHT22;65033;44.660;37.758;2023-12-20T03:29:04;12.19;77.95
75985;DHT22;65033;44.660;37.758;2023-12-20T03:30:08;12.19;78.75
75985;DHT22;65033;44.660;37.758;2023-12-20T03:31:12;12.21;79.21
75985;DHT22;65033;44.660;37.758;2023-12-20T03:32:15;12.18;78.56
75985;DHT22;65033;44.660;37.758;2023-12-20T03:33:19;12.18;78.34
75985;DHT22;65033;44.660;37.758;2023-12-20T03:34:22;12.18;78.65
75985;DHT22;65033;44.660;37.758;2023-12-20T03:35:26;12.18;78.38
75985;DHT22;65033;44.660;37.758;2023-12-20T03:36:29;12.16;78.75
75985;DHT22;65033;44.660;37.758;2023-12-20T03:37:33;12.17;78.92
75985;DHT22;65033;44.660;37.758;2023-12-20T03:38:36;12.18;79.24
75985;DHT22;65033;44.660;37.758;2023-12-20T03:39:39;12.18;78.75
75985;DHT22;65033;44.660;37.758;2023-12-20T03:40:43;12.19;78.87
75985;DHT22;65033;44.660;37.758;2023-12-20T03:41:48;12.17;78.14
75985;DHT22;65033;44.660;37.758;2023-12-20T03:42:51;12.18;77.92
75985;DHT22;65033;44.660;37.758;2023-12-20T03:43:55;12.18;77.36
75985;DHT22;65033;44.660;37.758;2023-12-20T03:44:58;12.18;77.22
75985;DHT22;65033;44.660;37.758;2023-12-20T03:46:03;12.18;76.98
75985;DHT22;65033;44.660;37.758;2023-12-20T03:47:07;12.18;77.04
75985;DHT22;65033;44.660;37.758;2023-12-20T03:48:10;12.17;77.14
75985;DHT22;65033;44.660;37.758;2023-12-20T03:49:14;12.16;76.97
75985;DHT22;65033;44.660;37.758;2023-12-20T03:50:18;12.16;76.78
75985;DHT22;65033;44.660;37.758;2023-12-20T03:51:21;12.15;77.18
75985;DHT22;65033;44.660;37.758;2023-12-20T03:52:25;12.14;76.75
75985;DHT22;65033;44.660;37.758;2023-12-20T03:53:28;12.13;76.50
75985;DHT22;65033;44.660;37.758;2023-12-20T03:54:31;12.15;76.49
75985;DHT22;65033;44.660;37.758;2023-12-20T03:55:35;12.15;77.27
75985;DHT22;65033;44.660;37.758;2023-12-20T03:56:38;12.16;77.54
75985;DHT22;65033;44.660;37.758;2023-12-20T03:57:43;12.16;76.66
75985;DHT22;65033;44.660;37.758;2023-12-20T03:58:47;12.13;76.20
75985;DHT22;65033;44.660;37.758;2023-12-20T03:59:50;12.12;75.64
75985;DHT22;65033;44.660;37.758;2023-12-20T04:00:54;12.11;76.13
75985;DHT22;65033;44.660;37.758;2023-12-20T04:01:57;12.14;76.59
75985;DHT22;65033;44.660;37.758;2023-12-20T04:03:01;12.26;79.24
75985;DHT22;65033;44.660;37.758;2023-12-20T04:04:05;12.34;75.89
75985;DHT22;65033;44.660;37.758;2023-12-20T04:05:10;12.33;75.86
75985;DHT22;65033;44.660;37.758;2023-12-20T04:06:17;12.31;75.89
75985;DHT22;65033;44.660;37.758;2023-12-20T04:07:20;12.28;75.92
75985;DHT22;65033;44.660;37.758;2023-12-20T04:08:24;12.27;76.04
75985;DHT22;65033;44.660;37.758;2023-12-20T04:09:27;12.26;75.73
75985;DHT22;65033;44.660;37.758;2023-12-20T04:10:31;12.26;76.36
75985;DHT22;65033;44.660;37.758;2023-12-20T04:11:34;12.23;75.97
75985;DHT22;65033;44.660;37.758;2023-12-20T04:12:38;12.21;76.42
75985;DHT22;65033;44.660;37.758;2023-12-20T04:13:43;12.22;77.02
75985;DHT22;65033;44.660;37.758;2023-12-20T04:14:46;12.20;76.59
75985;DHT22;65033;44.660;37.758;2023-12-20T04:15:50;12.21;76.46
75985;DHT22;65033;44.660;37.758;2023-12-20T04:16:54;12.22;76.30
75985;DHT22;65033;44.660;37.758;2023-12-20T04:17:58;12.22;76.41
75985;DHT22;65033;44.660;37.758;2023-12-20T04:19:01;12.19;76.47
75985;DHT22;65033;44.660;37.758;2023-12-20T04:20:06;12.20;76.37
75985;DHT22;65033;44.660;37.758;2023-12-20T04:21:10;12.20;75.99
75985;DHT22;65033;44.660;37.758;2023-12-20T04:22:32;12.21;75.71
75985;DHT22;65033;44.660;37.758;2023-12-20T04:23:36;12.21;75.50
75985;DHT22;65033;44.660;37.758;2023-12-20T04:24:39;12.20;74.82
75985;DHT22;65033;44.660;37.758;2023-12-20T04:25:51;12.21;75.34
75985;DHT22;65033;44.660;37.758;2023-12-20T04:26:55;12.21;75.47
75985;DHT22;65033;44.660;37.758;2023-12-20T04:27:58;12.20;76.53
75985;DHT22;65033;44.660;37.758;2023-12-20T04:29:03;12.21;76.50
75985;DHT22;65033;44.660;37.758;2023-12-20T04:30:08;12.20;75.76
75985;DHT22;65033;44.660;37.758;2023-12-20T04:31:12;12.20;75.45
75985;DHT22;65033;44.660;37.758;2023-12-20T04:32:16;12.21;76.05
75985;DHT22;65033;44.660;37.758;2023-12-20T04:33:19;12.21;76.12
75985;DHT22;65033;44.660;37.758;2023-12-20T04:34:23;12.21;76.59
75985;DHT22;65033;44.660;37.758;2023-12-20T04:35:26;12.21;76.40
75985;DHT22;65033;44.660;37.758;2023-12-20T04:36:30;12.19;76.46
75985;DHT22;65033;44.660;37.758;2023-12-20T04:37:34;12.16;75.59
75985;DHT22;65033;44.660;37.758;2023-12-20T04:38:37;12.15;76.04
75985;DHT22;65033;44.660;37.758;2023-12-20T04:39:40;12.15;76.42
75985;DHT22;65033;44.660;37.758;2023-12-20T04:40:46;12.15;76.46
75985;DHT22;65033;44.660;37.758;2023-12-20T04:41:51;12.13;76.52
75985;DHT22;65033;44.660;37.758;2023-12-20T04:42:54;12.11;76.27
75985;DHT22;65033;44.660;37.758;2023-12-20T04:44:05;12.10;76.55
75985;DHT22;65033;44.660;37.758;2023-12-20T04:45:09;12.06;76.79
75985;DHT22;65033;44.660;37.758;2023-12-20T04:46:13;12.21;80.49
75985;DHT22;65033;44.660;37.758;2023-12-20T04:47:16;12.46;80.15
75985;DHT22;65033;44.660;37.758;2023-12-20T04:48:20;12.79;80.71
75985;DHT22;65033;44.660;37.758;2023-12-20T04:49:24;12.74;75.07
75985;DHT22;65033;44.660;37.758;2023-12-20T04:50:28;12.64;74.26
75985;DHT22;65033;44.660;37.758;2023-12-20T04:51:33;12.56;74.30
75985;DHT22;65033;44.660;37.758;2023-12-20T04:52:39;12.47;74.64
75985;DHT22;65033;44.660;37.758;2023-12-20T04:53:42;12.38;74.60
75985;DHT22;65033;44.660;37.758;2023-12-20T04:54:46;12.30;74.72
75985;DHT22;65033;44.660;37.758;2023-12-20T04:55:49;12.25;74.47
75985;DHT22;65033;44.660;37.758;2023-12-20T04:56:53;12.21;75.25
75985;DHT22;65033;44.660;37.758;2023-12-20T04:57:56;12.19;75.62
75985;DHT22;65033;44.660;37.758;2023-12-20T04:59:00;12.16;75.90
75985;DHT22;65033;44.660;37.758;2023-12-20T05:00:07;12.14;76.00
75985;DHT22;65033;44.660;37.758;2023-12-20T05:01:15;12.13;75.28
75985;DHT22;65033;44.660;37.758;2023-12-20T05:02:18;12.10;74.57
75985;DHT22;65033;44.660;37.758;2023-12-20T05:03:22;12.06;74.35
75985;DHT22;65033;44.660;37.758;2023-12-20T05:04:25;12.04;73.88
75985;DHT22;65033;44.660;37.758;2023-12-20T05:05:29;12.02;75.81
75985;DHT22;65033;44.660;37.758;2023-12-20T05:06:33;12.00;76.45
75985;DHT22;65033;44.660;37.758;2023-12-20T05:07:36;12.00;76.88
75985;DHT22;65033;44.660;37.758;2023-12-20T05:08:40;11.98;76.92
75985;DHT22;65033;44.660;37.758;2023-12-20T05:09:44;11.97;77.01
75985;DHT22;65033;44.660;37.758;2023-12-20T05:10:48;11.93;76.33
75985;DHT22;65033;44.660;37.758;2023-12-20T05:11:51;11.94;75.66
75985;DHT22;65033;44.660;37.758;2023-12-20T05:12:55;11.94;76.02
75985;DHT22;65033;44.660;37.758;2023-12-20T05:13:59;11.93;76.31
75985;DHT22;65033;44.660;37.758;2023-12-20T05:15:03;11.96;76.76
75985;DHT22;65033;44.660;37.758;2023-12-20T05:16:08;11.93;76.21
75985;DHT22;65033;44.660;37.758;2023-12-20T05:17:12;11.94;75.96
75985;DHT22;65033;44.660;37.758;2023-12-20T05:18:15;11.93;75.84
75985;DHT22;65033;44.660;37.758;2023-12-20T05:19:19;11.93;75.60
75985;DHT22;65033;44.660;37.758;2023-12-20T05:20:22;11.93;75.79
75985;DHT22;65033;44.660;37.758;2023-12-20T05:21:26;11.93;75.80
75985;DHT22;65033;44.660;37.758;2023-12-20T05:22:31;11.89;74.89
75985;DHT22;65033;44.660;37.758;2023-12-20T05:23:34;11.89;74.87
75985;DHT22;65033;44.660;37.758;2023-12-20T05:24:37;11.89;74.71
75985;DHT22;65033;44.660;37.758;2023-12-20T05:25:41;11.90;75.65
75985;DHT22;65033;44.660;37.758;2023-12-20T05:26:45;12.13;81.96
75985;DHT22;65033;44.660;37.758;2023-12-20T05:27:49;12.56;86.45
75985;DHT22;65033;44.660;37.758;2023-12-20T05:28:52;13.40;93.14
75985;DHT22;65033;44.660;37.758;2023-12-20T05:29:56;13.05;74.65
75985;DHT22;65033;44.660;37.758;2023-12-20T05:31:00;12.96;72.50
75985;DHT22;65033;44.660;37.758;2023-12-20T05:32:06;12.76;71.17
75985;DHT22;65033;44.660;37.758;2023-12-20T05:33:09;12.63;71.49
75985;DHT22;65033;44.660;37.758;2023-12-20T05:34:13;12.52;72.77
75985;DHT22;65033;44.660;37.758;2023-12-20T05:35:17;12.44;74.07
75985;DHT22;65033;44.660;37.758;2023-12-20T05:36:20;12.36;73.25
75985;DHT22;65033;44.660;37.758;2023-12-20T05:37:24;12.31;72.99
75985;DHT22;65033;44.660;37.758;2023-12-20T05:38:27;12.26;73.19
75985;DHT22;65033;44.660;37.758;2023-12-20T05:39:31;12.22;73.96
75985;DHT22;65033;44.660;37.758;2023-12-20T05:40:34;12.20;74.54
75985;DHT22;65033;44.660;37.758;2023-12-20T05:41:38;12.18;73.51
75985;DHT22;65033;44.660;37.758;2023-12-20T05:42:41;12.14;73.06
75985;DHT22;65033;44.660;37.758;2023-12-20T05:43:45;12.14;73.40
75985;DHT22;65033;44.660;37.758;2023-12-20T05:44:48;12.12;72.81
75985;DHT22;65033;44.660;37.758;2023-12-20T05:45:52;12.53;82.66
75985;DHT22;65033;44.660;37.758;2023-12-20T05:46:56;13.05;85.96
75985;DHT22;65033;44.660;37.758;2023-12-20T05:48:01;12.93;70.37
75985;DHT22;65033;44.660;37.758;2023-12-20T05:49:04;12.81;68.82
75985;DHT22;65033;44.660;37.758;2023-12-20T05:50:08;12.73;69.07
75985;DHT22;65033;44.660;37.758;2023-12-20T05:51:12;12.63;68.54
75985;DHT22;65033;44.660;37.758;2023-12-20T05:52:16;12.59;68.69
75985;DHT22;65033;44.660;37.758;2023-12-20T05:53:19;12.56;69.29
75985;DHT22;65033;44.660;37.758;2023-12-20T05:54:23;12.52;70.59
75985;DHT22;65033;44.660;37.758;2023-12-20T05:55:26;12.46;72.06
75985;DHT22;65033;44.660;37.758;2023-12-20T05:56:29;12.44;72.90
75985;DHT22;65033;44.660;37.758;2023-12-20T05:57:33;12.44;73.59
75985;DHT22;65033;44.660;37.758;2023-12-20T05:58:38;12.41;74.33
75985;DHT22;65033;44.660;37.758;2023-12-20T05:59:41;12.41;74.54
75985;DHT22;65033;44.660;37.758;2023-12-20T06:00:45;12.40;73.37
75985;DHT22;65033;44.660;37.758;2023-12-20T06:01:49;12.37;73.39
75985;DHT22;65033;44.660;37.758;2023-12-20T06:02:53;12.38;72.82
75985;DHT22;65033;44.660;37.758;2023-12-20T06:03:58;12.38;72.97
75985;DHT22;65033;44.660;37.758;2023-12-20T06:05:02;12.42;73.48
75985;DHT22;65033;44.660;37.758;2023-12-20T06:06:09;12.41;72.91
75985;DHT22;65033;44.660;37.758;2023-12-20T06:07:15;12.43;73.70
75985;DHT22;65033;44.660;37.758;2023-12-20T06:08:19;12.43;73.90
75985;DHT22;65033;44.660;37.758;2023-12-20T06:09:22;12.43;72.71
75985;DHT22;65033;44.660;37.758;2023-12-20T06:10:26;12.41;72.64
75985;DHT22;65033;44.660;37.758;2023-12-20T06:11:30;12.40;72.64
75985;DHT22;65033;44.660;37.758;2023-12-20T06:12:33;12.43;72.01
75985;DHT22;65033;44.660;37.758;2023-12-20T06:13:38;12.43;72.31
75985;DHT22;65033;44.660;37.758;2023-12-20T06:14:42;12.44;71.84
75985;DHT22;65033;44.660;37.758;2023-12-20T06:15:46;12.44;72.35
75985;DHT22;65033;44.660;37.758;2023-12-20T06:16:49;12.43;72.43
75985;DHT22;65033;44.660;37.758;2023-12-20T06:17:53;12.45;72.90
75985;DHT22;65033;44.660;37.758;2023-12-20T06:18:58;12.44;72.77
75985;DHT22;65033;44.660;37.758;2023-12-20T06:20:01;12.47;73.15
75985;DHT22;65033;44.660;37.758;2023-12-20T06:21:06;12.51;72.90
75985;DHT22;65033;44.660;37.758;2023-12-20T06:22:11;12.55;72.48
75985;DHT22;65033;44.660;37.758;2023-12-20T06:23:14;12.57;71.85
75985;DHT22;65033;44.660;37.758;2023-12-20T06:24:18;12.57;71.94
75985;DHT22;65033;44.660;37.758;2023-12-20T06:25:21;12.58;72.57
75985;DHT22;65033;44.660;37.758;2023-12-20T06:26:25;12.60;71.93
75985;DHT22;65033;44.660;37.758;2023-12-20T06:27:29;12.60;71.81
75985;DHT22;65033;44.660;37.758;2023-12-20T06:28:32;12.59;71.13
75985;DHT22;65033;44.660;37.758;2023-12-20T06:29:36;12.59;71.58
75985;DHT22;65033;44.660;37.758;2023-12-20T06:30:39;12.61;72.19
75985;DHT22;65033;44.660;37.758;2023-12-20T06:31:43;12.61;72.39
75985;DHT22;65033;44.660;37.758;2023-12-20T06:32:46;12.63;72.24
75985;DHT22;65033;44.660;37.758;2023-12-20T06:33:50;12.66;72.49
75985;DHT22;65033;44.660;37.758;2023-12-20T06:35:02;12.69;71.73
75985;DHT22;65033;44.660;37.758;2023-12-20T06:36:10;12.69;72.05
75985;DHT22;65033;44.660;37.758;2023-12-20T06:37:14;12.74;72.86